KRWL/RWL METAR and TAF weather

Enter ICAO airport designator
Station Type Date Time Source
KRWL METAR 2021/06/24 06:53 UTC NOAA

KRWL 240653Z AUTO 20005KT 10SM CLR 19/M02 A3014 RMK AO2 SLP089 T01891017 403170122


Station Type Date Time Source
KRWL Decoded METAR 2021/06/24 06:53 UTC NOAA

RAWLINS MUNICIPAL AIRPORT, WY, United States (KRWL) 41-48N 107-12W
Jun 24, 2021 - 02:53 AM EDT / 2021.06.24 0653 UTC
Wind: from the SSW (200 degrees) at 6 MPH (5 KT):0
Visibility: 10 mile(s):0
Sky conditions: clear
Temperature: 66.0 F (18.9 C)
Dew Point: 28.9 F (-1.7 C)
Relative Humidity: 24%
Pressure (altimeter): 30.14 in. Hg (1020 hPa)
ob: KRWL 240653Z AUTO 20005KT 10SM CLR 19/M02 A3014 RMK AO2 SLP089 T01891017 403170122
cycle: 7

Station Type Date Time Source
KRWL TAF 2021/06/24 06:45 UTC NOAA

TAF KRWL 240542Z 2406/2506 24008KT P6SM SCT150
FM241630 24012G23KT P6SM BKN100
FM242100 27012G23KT P6SM VCTS BKN080CB
FM250100 29012KT P6SM VCSH BKN060

Example: see airport list